sensor_id;sensor_type;location;lat;lon;timestamp;temperature;humidity
24374;DHT22;12498;50.880;12.096;2022-10-31T00:01:12;13.60;32.80
24374;DHT22;12498;50.880;12.096;2022-10-31T00:03:37;13.60;35.30
24374;DHT22;12498;50.880;12.096;2022-10-31T00:06:03;13.40;38.80
24374;DHT22;12498;50.880;12.096;2022-10-31T00:08:29;13.40;43.10
24374;DHT22;12498;50.880;12.096;2022-10-31T00:10:54;13.40;47.30
24374;DHT22;12498;50.880;12.096;2022-10-31T00:13:20;13.30;43.70
24374;DHT22;12498;50.880;12.096;2022-10-31T00:15:45;13.30;47.20
24374;DHT22;12498;50.880;12.096;2022-10-31T00:18:11;13.20;46.90
24374;DHT22;12498;50.880;12.096;2022-10-31T00:20:37;13.10;52.80
24374;DHT22;12498;50.880;12.096;2022-10-31T00:23:03;13.00;54.90
24374;DHT22;12498;50.880;12.096;2022-10-31T00:25:36;13.00;55.70
24374;DHT22;12498;50.880;12.096;2022-10-31T00:28:03;12.90;65.40
24374;DHT22;12498;50.880;12.096;2022-10-31T00:30:28;12.90;62.40
24374;DHT22;12498;50.880;12.096;2022-10-31T00:32:54;12.80;61.00
24374;DHT22;12498;50.880;12.096;2022-10-31T00:35:19;12.80;65.70
24374;DHT22;12498;50.880;12.096;2022-10-31T00:37:45;12.70;69.50
24374;DHT22;12498;50.880;12.096;2022-10-31T00:40:11;12.70;71.40
24374;DHT22;12498;50.880;12.096;2022-10-31T00:42:37;12.70;65.10
24374;DHT22;12498;50.880;12.096;2022-10-31T00:45:02;12.60;68.10
24374;DHT22;12498;50.880;12.096;2022-10-31T00:47:28;12.60;73.90
24374;DHT22;12498;50.880;12.096;2022-10-31T00:49:53;12.60;81.70
24374;DHT22;12498;50.880;12.096;2022-10-31T00:52:19;12.60;90.10
24374;DHT22;12498;50.880;12.096;2022-10-31T00:54:45;12.50;89.80
24374;DHT22;12498;50.880;12.096;2022-10-31T00:57:10;12.60;91.10
24374;DHT22;12498;50.880;12.096;2022-10-31T00:59:36;12.50;86.70
24374;DHT22;12498;50.880;12.096;2022-10-31T01:02:01;12.50;83.30
24374;DHT22;12498;50.880;12.096;2022-10-31T01:04:27;12.50;91.10
24374;DHT22;12498;50.880;12.096;2022-10-31T01:06:52;12.40;92.80
24374;DHT22;12498;50.880;12.096;2022-10-31T01:09:18;12.40;92.50
24374;DHT22;12498;50.880;12.096;2022-10-31T01:11:44;12.40;91.60
24374;DHT22;12498;50.880;12.096;2022-10-31T01:14:10;12.30;89.70
24374;DHT22;12498;50.880;12.096;2022-10-31T01:16:36;12.20;95.90
24374;DHT22;12498;50.880;12.096;2022-10-31T01:19:01;12.10;97.30
24374;DHT22;12498;50.880;12.096;2022-10-31T01:21:28;12.20;99.90
24374;DHT22;12498;50.880;12.096;2022-10-31T01:23:55;12.10;97.30
24374;DHT22;12498;50.880;12.096;2022-10-31T01:26:23;12.10;98.50
24374;DHT22;12498;50.880;12.096;2022-10-31T01:28:51;12.10;99.90
24374;DHT22;12498;50.880;12.096;2022-10-31T01:31:19;12.10;99.90
24374;DHT22;12498;50.880;12.096;2022-10-31T01:33:46;12.00;99.90
24374;DHT22;12498;50.880;12.096;2022-10-31T01:36:24;12.00;99.90
24374;DHT22;12498;50.880;12.096;2022-10-31T01:38:52;12.00;99.90
24374;DHT22;12498;50.880;12.096;2022-10-31T01:41:21;12.00;99.90
24374;DHT22;12498;50.880;12.096;2022-10-31T01:43:54;11.90;99.90
24374;DHT22;12498;50.880;12.096;2022-10-31T01:48:53;11.90;99.90
24374;DHT22;12498;50.880;12.096;2022-10-31T01:51:21;11.90;99.90
24374;DHT22;12498;50.880;12.096;2022-10-31T01:53:50;11.90;99.90
24374;DHT22;12498;50.880;12.096;2022-10-31T01:56:17;11.80;99.90
24374;DHT22;12498;50.880;12.096;2022-10-31T01:58:45;11.80;99.90
24374;DHT22;12498;50.880;12.096;2022-10-31T02:01:13;11.70;99.90
24374;DHT22;12498;50.880;12.096;2022-10-31T02:03:39;11.80;99.90
24374;DHT22;12498;50.880;12.096;2022-10-31T02:06:10;11.70;99.90
24374;DHT22;12498;50.880;12.096;2022-10-31T02:08:39;11.70;99.90
24374;DHT22;12498;50.880;12.096;2022-10-31T02:11:05;11.70;99.90
24374;DHT22;12498;50.880;12.096;2022-10-31T02:13:33;11.70;99.90
24374;DHT22;12498;50.880;12.096;2022-10-31T02:15:59;11.70;99.90
24374;DHT22;12498;50.880;12.096;2022-10-31T02:18:28;11.70;99.90
24374;DHT22;12498;50.880;12.096;2022-10-31T02:40:20;11.40;99.90
24374;DHT22;12498;50.880;12.096;2022-10-31T02:43:07;11.40;99.90
24374;DHT22;12498;50.880;12.096;2022-10-31T02:48:42;11.30;99.90
24374;DHT22;12498;50.880;12.096;2022-10-31T02:51:10;11.30;99.90
24374;DHT22;12498;50.880;12.096;2022-10-31T02:53:37;11.30;99.90
24374;DHT22;12498;50.880;12.096;2022-10-31T02:56:17;11.20;99.90
24374;DHT22;12498;50.880;12.096;2022-10-31T03:06:56;11.30;99.90
24374;DHT22;12498;50.880;12.096;2022-10-31T03:14:51;11.20;99.90
24374;DHT22;12498;50.880;12.096;2022-10-31T03:20:00;11.10;99.90
24374;DHT22;12498;50.880;12.096;2022-10-31T03:22:29;11.10;99.90
24374;DHT22;12498;50.880;12.096;2022-10-31T03:24:56;11.10;99.90
24374;DHT22;12498;50.880;12.096;2022-10-31T03:27:25;11.20;99.90
24374;DHT22;12498;50.880;12.096;2022-10-31T03:29:55;11.10;99.90
24374;DHT22;12498;50.880;12.096;2022-10-31T03:32:38;11.00;99.90
24374;DHT22;12498;50.880;12.096;2022-10-31T03:35:08;11.00;99.90
24374;DHT22;12498;50.880;12.096;2022-10-31T03:37:36;11.00;99.90
24374;DHT22;12498;50.880;12.096;2022-10-31T03:40:04;11.00;99.90
24374;DHT22;12498;50.880;12.096;2022-10-31T03:42:33;11.00;99.90
24374;DHT22;12498;50.880;12.096;2022-10-31T03:47:30;11.00;99.90
24374;DHT22;12498;50.880;12.096;2022-10-31T03:49:55;10.90;99.90
24374;DHT22;12498;50.880;12.096;2022-10-31T03:52:37;10.90;99.90
24374;DHT22;12498;50.880;12.096;2022-10-31T03:55:18;10.90;99.90
24374;DHT22;12498;50.880;12.096;2022-10-31T03:57:53;10.90;99.90
24374;DHT22;12498;50.880;12.096;2022-10-31T04:00:19;10.90;99.90
24374;DHT22;12498;50.880;12.096;2022-10-31T04:02:55;10.90;99.90
24374;DHT22;12498;50.880;12.096;2022-10-31T04:05:21;10.80;99.90
24374;DHT22;12498;50.880;12.096;2022-10-31T04:07:50;10.80;99.90
24374;DHT22;12498;50.880;12.096;2022-10-31T04:10:17;10.80;99.90
24374;DHT22;12498;50.880;12.096;2022-10-31T04:12:49;10.80;99.90
24374;DHT22;12498;50.880;12.096;2022-10-31T04:15:16;10.80;99.90
24374;DHT22;12498;50.880;12.096;2022-10-31T04:17:44;10.80;99.90
24374;DHT22;12498;50.880;12.096;2022-10-31T04:20:10;10.80;99.90
24374;DHT22;12498;50.880;12.096;2022-10-31T04:22:36;10.70;99.90
24374;DHT22;12498;50.880;12.096;2022-10-31T04:25:01;10.70;99.90
24374;DHT22;12498;50.880;12.096;2022-10-31T04:27:27;10.70;99.90
24374;DHT22;12498;50.880;12.096;2022-10-31T04:29:53;10.60;99.90
24374;DHT22;12498;50.880;12.096;2022-10-31T04:32:18;10.60;99.90
24374;DHT22;12498;50.880;12.096;2022-10-31T04:34:44;10.60;99.90
24374;DHT22;12498;50.880;12.096;2022-10-31T04:37:09;10.60;99.90
24374;DHT22;12498;50.880;12.096;2022-10-31T04:39:35;10.60;99.90
24374;DHT22;12498;50.880;12.096;2022-10-31T04:42:00;10.60;99.90
24374;DHT22;12498;50.880;12.096;2022-10-31T04:44:26;10.60;99.90
24374;DHT22;12498;50.880;12.096;2022-10-31T04:46:51;10.50;99.90
24374;DHT22;12498;50.880;12.096;2022-10-31T04:49:17;10.50;99.90
24374;DHT22;12498;50.880;12.096;2022-10-31T04:51:43;10.50;99.90
24374;DHT22;12498;50.880;12.096;2022-10-31T04:54:08;10.60;99.90
24374;DHT22;12498;50.880;12.096;2022-10-31T04:56:34;10.50;99.90
24374;DHT22;12498;50.880;12.096;2022-10-31T04:58:59;10.50;99.90
24374;DHT22;12498;50.880;12.096;2022-10-31T05:01:25;10.50;99.90
24374;DHT22;12498;50.880;12.096;2022-10-31T05:03:50;10.50;99.90
24374;DHT22;12498;50.880;12.096;2022-10-31T05:06:16;10.50;99.90
24374;DHT22;12498;50.880;12.096;2022-10-31T05:08:42;10.50;99.90
24374;DHT22;12498;50.880;12.096;2022-10-31T05:11:07;10.40;99.90
24374;DHT22;12498;50.880;12.096;2022-10-31T05:13:33;10.40;99.90
24374;DHT22;12498;50.880;12.096;2022-10-31T05:15:59;10.40;99.90
24374;DHT22;12498;50.880;12.096;2022-10-31T05:18:24;10.30;99.90
24374;DHT22;12498;50.880;12.096;2022-10-31T05:20:50;10.30;99.90
24374;DHT22;12498;50.880;12.096;2022-10-31T05:23:15;10.30;99.90
24374;DHT22;12498;50.880;12.096;2022-10-31T05:25:41;10.30;99.90
24374;DHT22;12498;50.880;12.096;2022-10-31T05:28:07;10.30;99.90
24374;DHT22;12498;50.880;12.096;2022-10-31T05:30:33;10.30;99.90
24374;DHT22;12498;50.880;12.096;2022-10-31T05:32:59;10.30;99.90
24374;DHT22;12498;50.880;12.096;2022-10-31T05:35:28;10.30;99.90
24374;DHT22;12498;50.880;12.096;2022-10-31T05:37:54;10.20;99.90
24374;DHT22;12498;50.880;12.096;2022-10-31T05:40:21;10.20;99.90
24374;DHT22;12498;50.880;12.096;2022-10-31T05:42:47;10.20;99.90
24374;DHT22;12498;50.880;12.096;2022-10-31T05:45:16;10.20;99.90
24374;DHT22;12498;50.880;12.096;2022-10-31T05:47:49;10.10;99.90
24374;DHT22;12498;50.880;12.096;2022-10-31T05:50:15;10.10;99.90
24374;DHT22;12498;50.880;12.096;2022-10-31T05:52:41;10.10;99.90
24374;DHT22;12498;50.880;12.096;2022-10-31T05:55:06;10.10;99.90
24374;DHT22;12498;50.880;12.096;2022-10-31T05:57:32;10.10;99.90
24374;DHT22;12498;50.880;12.096;2022-10-31T05:59:58;10.00;99.90
24374;DHT22;12498;50.880;12.096;2022-10-31T06:02:24;10.00;99.90
24374;DHT22;12498;50.880;12.096;2022-10-31T06:04:50;10.00;99.90
24374;DHT22;12498;50.880;12.096;2022-10-31T06:07:16;9.90;99.90
24374;DHT22;12498;50.880;12.096;2022-10-31T06:09:41;10.00;99.90
24374;DHT22;12498;50.880;12.096;2022-10-31T06:12:07;9.90;99.90
24374;DHT22;12498;50.880;12.096;2022-10-31T06:14:32;9.90;99.90
24374;DHT22;12498;50.880;12.096;2022-10-31T06:16:58;9.90;99.90
24374;DHT22;12498;50.880;12.096;2022-10-31T06:19:23;10.20;99.90
24374;DHT22;12498;50.880;12.096;2022-10-31T06:21:49;10.00;99.90
24374;DHT22;12498;50.880;12.096;2022-10-31T06:24:15;10.00;99.90
24374;DHT22;12498;50.880;12.096;2022-10-31T06:26:42;10.00;99.90
24374;DHT22;12498;50.880;12.096;2022-10-31T06:29:07;9.90;99.90
24374;DHT22;12498;50.880;12.096;2022-10-31T06:31:33;10.00;99.90
24374;DHT22;12498;50.880;12.096;2022-10-31T06:33:58;10.00;99.90
24374;DHT22;12498;50.880;12.096;2022-10-31T06:36:24;9.90;99.90
24374;DHT22;12498;50.880;12.096;2022-10-31T06:38:50;10.00;99.90
24374;DHT22;12498;50.880;12.096;2022-10-31T06:41:15;10.00;99.90
24374;DHT22;12498;50.880;12.096;2022-10-31T06:43:41;10.00;99.90
24374;DHT22;12498;50.880;12.096;2022-10-31T06:46:06;10.00;99.90
24374;DHT22;12498;50.880;12.096;2022-10-31T06:48:33;10.10;99.90
24374;DHT22;12498;50.880;12.096;2022-10-31T06:51:02;10.10;99.90
24374;DHT22;12498;50.880;12.096;2022-10-31T06:53:28;10.10;99.90
24374;DHT22;12498;50.880;12.096;2022-10-31T06:55:56;10.10;99.90
24374;DHT22;12498;50.880;12.096;2022-10-31T06:58:22;10.10;99.90
24374;DHT22;12498;50.880;12.096;2022-10-31T07:00:47;10.10;99.90
24374;DHT22;12498;50.880;12.096;2022-10-31T07:03:14;10.10;99.90
24374;DHT22;12498;50.880;12.096;2022-10-31T07:05:41;10.20;99.90
24374;DHT22;12498;50.880;12.096;2022-10-31T07:08:10;10.20;99.90
24374;DHT22;12498;50.880;12.096;2022-10-31T07:10:37;10.20;99.90
24374;DHT22;12498;50.880;12.096;2022-10-31T07:13:06;10.30;99.90
24374;DHT22;12498;50.880;12.096;2022-10-31T07:15:36;10.40;99.90
24374;DHT22;12498;50.880;12.096;2022-10-31T07:18:07;10.40;99.90
24374;DHT22;12498;50.880;12.096;2022-10-31T07:20:34;10.40;99.90
24374;DHT22;12498;50.880;12.096;2022-10-31T07:22:59;10.50;99.90
24374;DHT22;12498;50.880;12.096;2022-10-31T07:25:26;10.50;99.90
24374;DHT22;12498;50.880;12.096;2022-10-31T07:27:51;10.60;99.90
24374;DHT22;12498;50.880;12.096;2022-10-31T07:30:17;10.60;99.90
24374;DHT22;12498;50.880;12.096;2022-10-31T07:32:50;10.60;99.90
24374;DHT22;12498;50.880;12.096;2022-10-31T07:35:23;10.70;99.90
24374;DHT22;12498;50.880;12.096;2022-10-31T07:37:49;10.80;99.90
24374;DHT22;12498;50.880;12.096;2022-10-31T07:40:15;10.80;99.90
24374;DHT22;12498;50.880;12.096;2022-10-31T07:42:43;10.90;99.90
24374;DHT22;12498;50.880;12.096;2022-10-31T07:45:14;11.00;99.90
24374;DHT22;12498;50.880;12.096;2022-10-31T07:47:45;11.00;99.90
24374;DHT22;12498;50.880;12.096;2022-10-31T07:50:13;11.00;99.90
24374;DHT22;12498;50.880;12.096;2022-10-31T07:52:39;11.10;99.90
24374;DHT22;12498;50.880;12.096;2022-10-31T07:55:05;11.10;99.90
24374;DHT22;12498;50.880;12.096;2022-10-31T07:57:31;11.20;99.90
24374;DHT22;12498;50.880;12.096;2022-10-31T07:59:57;11.30;99.90
24374;DHT22;12498;50.880;12.096;2022-10-31T08:02:23;11.30;99.90
24374;DHT22;12498;50.880;12.096;2022-10-31T08:04:50;11.30;99.90
24374;DHT22;12498;50.880;12.096;2022-10-31T08:07:16;11.40;99.90
24374;DHT22;12498;50.880;12.096;2022-10-31T08:09:42;11.40;99.90
24374;DHT22;12498;50.880;12.096;2022-10-31T08:12:07;11.50;99.90
24374;DHT22;12498;50.880;12.096;2022-10-31T08:14:33;11.60;99.90
24374;DHT22;12498;50.880;12.096;2022-10-31T08:16:58;11.70;99.90
24374;DHT22;12498;50.880;12.096;2022-10-31T08:19:24;11.70;99.90
24374;DHT22;12498;50.880;12.096;2022-10-31T08:21:53;11.80;99.90
24374;DHT22;12498;50.880;12.096;2022-10-31T08:24:21;11.90;99.90
24374;DHT22;12498;50.880;12.096;2022-10-31T08:26:46;11.90;99.90
24374;DHT22;12498;50.880;12.096;2022-10-31T08:29:12;12.00;99.90
24374;DHT22;12498;50.880;12.096;2022-10-31T08:31:38;12.10;99.90
24374;DHT22;12498;50.880;12.096;2022-10-31T08:34:04;12.10;99.90
24374;DHT22;12498;50.880;12.096;2022-10-31T08:36:29;12.20;99.90
24374;DHT22;12498;50.880;12.096;2022-10-31T08:38:55;12.30;99.90
24374;DHT22;12498;50.880;12.096;2022-10-31T08:41:21;12.30;99.90
24374;DHT22;12498;50.880;12.096;2022-10-31T08:43:47;12.40;99.90
24374;DHT22;12498;50.880;12.096;2022-10-31T08:46:13;12.50;99.90
24374;DHT22;12498;50.880;12.096;2022-10-31T08:48:38;12.60;99.90
24374;DHT22;12498;50.880;12.096;2022-10-31T08:51:04;12.60;99.90
24374;DHT22;12498;50.880;12.096;2022-10-31T08:53:30;12.70;99.90
24374;DHT22;12498;50.880;12.096;2022-10-31T08:55:56;12.80;99.90
24374;DHT22;12498;50.880;12.096;2022-10-31T08:58:23;12.90;99.90
24374;DHT22;12498;50.880;12.096;2022-10-31T09:00:51;13.00;99.90
24374;DHT22;12498;50.880;12.096;2022-10-31T09:03:22;13.10;99.90
24374;DHT22;12498;50.880;12.096;2022-10-31T09:05:49;13.10;99.90
24374;DHT22;12498;50.880;12.096;2022-10-31T09:08:15;13.20;99.90
24374;DHT22;12498;50.880;12.096;2022-10-31T09:10:41;13.30;99.90
24374;DHT22;12498;50.880;12.096;2022-10-31T09:13:10;13.40;99.90
24374;DHT22;12498;50.880;12.096;2022-10-31T09:15:38;13.40;99.90
24374;DHT22;12498;50.880;12.096;2022-10-31T09:18:05;13.40;99.90
24374;DHT22;12498;50.880;12.096;2022-10-31T09:20:32;13.50;99.90
24374;DHT22;12498;50.880;12.096;2022-10-31T09:23:00;13.50;99.90
24374;DHT22;12498;50.880;12.096;2022-10-31T09:25:27;13.60;99.90
24374;DHT22;12498;50.880;12.096;2022-10-31T09:27:56;13.70;99.90
24374;DHT22;12498;50.880;12.096;2022-10-31T09:30:23;13.80;99.90
24374;DHT22;12498;50.880;12.096;2022-10-31T09:32:54;13.90;99.90
24374;DHT22;12498;50.880;12.096;2022-10-31T09:35:19;13.90;98.30
24374;DHT22;12498;50.880;12.096;2022-10-31T09:37:45;14.00;95.40
24374;DHT22;12498;50.880;12.096;2022-10-31T09:40:10;14.10;92.60
24374;DHT22;12498;50.880;12.096;2022-10-31T09:51:10;14.50;85.40
24374;DHT22;12498;50.880;12.096;2022-10-31T09:56:25;14.80;79.20
24374;DHT22;12498;50.880;12.096;2022-10-31T09:58:53;14.90;81.50
24374;DHT22;12498;50.880;12.096;2022-10-31T10:01:30;15.10;83.90
24374;DHT22;12498;50.880;12.096;2022-10-31T10:04:03;15.20;83.20
24374;DHT22;12498;50.880;12.096;2022-10-31T10:06:34;15.40;81.10
24374;DHT22;12498;50.880;12.096;2022-10-31T10:09:00;15.40;82.80
24374;DHT22;12498;50.880;12.096;2022-10-31T10:17:17;15.70;75.00
24374;DHT22;12498;50.880;12.096;2022-10-31T10:20:02;15.80;73.40
24374;DHT22;12498;50.880;12.096;2022-10-31T10:22:49;15.90;71.30
24374;DHT22;12498;50.880;12.096;2022-10-31T10:25:21;16.00;68.30
24374;DHT22;12498;50.880;12.096;2022-10-31T10:28:05;16.10;67.50
24374;DHT22;12498;50.880;12.096;2022-10-31T10:31:01;16.10;62.00
24374;DHT22;12498;50.880;12.096;2022-10-31T10:33:42;16.20;61.90
24374;DHT22;12498;50.880;12.096;2022-10-31T10:36:16;16.20;58.00
24374;DHT22;12498;50.880;12.096;2022-10-31T10:41:19;16.30;58.20
24374;DHT22;12498;50.880;12.096;2022-10-31T10:43:45;16.30;58.10
24374;DHT22;12498;50.880;12.096;2022-10-31T10:46:14;16.40;55.80
24374;DHT22;12498;50.880;12.096;2022-10-31T10:51:56;16.60;52.80
24374;DHT22;12498;50.880;12.096;2022-10-31T11:00:24;16.70;47.30
24374;DHT22;12498;50.880;12.096;2022-10-31T11:02:50;16.80;46.20
24374;DHT22;12498;50.880;12.096;2022-10-31T11:05:46;16.90;40.80
24374;DHT22;12498;50.880;12.096;2022-10-31T11:08:24;17.00;36.90
24374;DHT22;12498;50.880;12.096;2022-10-31T11:13:30;17.10;34.40
24374;DHT22;12498;50.880;12.096;2022-10-31T11:16:08;17.10;33.20
24374;DHT22;12498;50.880;12.096;2022-10-31T11:18:39;17.20;33.40
24374;DHT22;12498;50.880;12.096;2022-10-31T11:21:05;17.20;34.00
24374;DHT22;12498;50.880;12.096;2022-10-31T11:23:32;17.30;32.00
24374;DHT22;12498;50.880;12.096;2022-10-31T11:26:00;17.40;31.80
24374;DHT22;12498;50.880;12.096;2022-10-31T11:28:28;17.50;30.50
24374;DHT22;12498;50.880;12.096;2022-10-31T11:31:08;17.50;29.50
24374;DHT22;12498;50.880;12.096;2022-10-31T11:33:39;17.60;29.10
24374;DHT22;12498;50.880;12.096;2022-10-31T11:36:18;17.60;28.40
24374;DHT22;12498;50.880;12.096;2022-10-31T11:38:46;17.70;27.80
24374;DHT22;12498;50.880;12.096;2022-10-31T11:41:19;17.70;27.00
24374;DHT22;12498;50.880;12.096;2022-10-31T11:43:57;17.70;25.70
24374;DHT22;12498;50.880;12.096;2022-10-31T11:46:48;17.80;25.40
24374;DHT22;12498;50.880;12.096;2022-10-31T11:51:54;17.90;19.80
24374;DHT22;12498;50.880;12.096;2022-10-31T11:54:29;17.90;20.40
24374;DHT22;12498;50.880;12.096;2022-10-31T11:56:55;17.90;18.20
24374;DHT22;12498;50.880;12.096;2022-10-31T11:59:28;18.10;18.40
24374;DHT22;12498;50.880;12.096;2022-10-31T12:01:54;18.20;16.80
24374;DHT22;12498;50.880;12.096;2022-10-31T12:04:31;18.30;17.30
24374;DHT22;12498;50.880;12.096;2022-10-31T12:06:58;18.30;15.50
24374;DHT22;12498;50.880;12.096;2022-10-31T12:09:27;18.40;14.00
24374;DHT22;12498;50.880;12.096;2022-10-31T12:23:25;18.50;9.80
24374;DHT22;12498;50.880;12.096;2022-10-31T12:26:47;18.60;9.20
24374;DHT22;12498;50.880;12.096;2022-10-31T12:31:37;18.80;7.00
24374;DHT22;12498;50.880;12.096;2022-10-31T12:36:54;18.90;5.90
24374;DHT22;12498;50.880;12.096;2022-10-31T12:39:40;19.00;6.70
24374;DHT22;12498;50.880;12.096;2022-10-31T12:42:37;19.00;5.70
24374;DHT22;12498;50.880;12.096;2022-10-31T12:45:33;18.90;6.40
24374;DHT22;12498;50.880;12.096;2022-10-31T12:50:58;18.90;6.00
24374;DHT22;12498;50.880;12.096;2022-10-31T12:53:31;18.90;5.20
24374;DHT22;12498;50.880;12.096;2022-10-31T12:58:59;18.80;8.20
24374;DHT22;12498;50.880;12.096;2022-10-31T13:01:30;18.80;8.00
24374;DHT22;12498;50.880;12.096;2022-10-31T13:04:36;18.90;7.40
24374;DHT22;12498;50.880;12.096;2022-10-31T13:07:10;18.80;7.20
24374;DHT22;12498;50.880;12.096;2022-10-31T13:09:59;18.90;6.80
24374;DHT22;12498;50.880;12.096;2022-10-31T13:12:28;18.80;7.70
24374;DHT22;12498;50.880;12.096;2022-10-31T13:14:58;18.80;8.20
24374;DHT22;12498;50.880;12.096;2022-10-31T13:17:41;18.90;7.90
24374;DHT22;12498;50.880;12.096;2022-10-31T13:22:49;18.90;7.00
24374;DHT22;12498;50.880;12.096;2022-10-31T13:25:20;18.90;7.00
24374;DHT22;12498;50.880;12.096;2022-10-31T13:30:45;18.80;7.20
24374;DHT22;12498;50.880;12.096;2022-10-31T13:33:27;18.70;7.00
24374;DHT22;12498;50.880;12.096;2022-10-31T13:44:01;18.70;8.10
24374;DHT22;12498;50.880;12.096;2022-10-31T13:48:57;18.70;9.20
24374;DHT22;12498;50.880;12.096;2022-10-31T13:51:31;18.70;8.30
24374;DHT22;12498;50.880;12.096;2022-10-31T13:54:01;18.60;9.00
24374;DHT22;12498;50.880;12.096;2022-10-31T13:56:33;18.50;9.80
24374;DHT22;12498;50.880;12.096;2022-10-31T14:01:35;18.40;11.40
24374;DHT22;12498;50.880;12.096;2022-10-31T14:04:06;18.30;13.10
24374;DHT22;12498;50.880;12.096;2022-10-31T14:06:56;18.30;15.00
24374;DHT22;12498;50.880;12.096;2022-10-31T14:09:24;18.20;16.50
24374;DHT22;12498;50.880;12.096;2022-10-31T14:11:51;18.20;18.80
24374;DHT22;12498;50.880;12.096;2022-10-31T14:14:19;18.10;19.50
24374;DHT22;12498;50.880;12.096;2022-10-31T14:16:46;18.20;20.30
24374;DHT22;12498;50.880;12.096;2022-10-31T14:19:19;18.20;20.80
24374;DHT22;12498;50.880;12.096;2022-10-31T14:21:50;18.10;21.00
24374;DHT22;12498;50.880;12.096;2022-10-31T14:48:47;17.60;30.10
24374;DHT22;12498;50.880;12.096;2022-10-31T14:51:22;17.60;32.10
24374;DHT22;12498;50.880;12.096;2022-10-31T14:53:55;17.60;33.30
24374;DHT22;12498;50.880;12.096;2022-10-31T14:56:31;17.50;34.30
24374;DHT22;12498;50.880;12.096;2022-10-31T14:58:59;17.40;36.00
24374;DHT22;12498;50.880;12.096;2022-10-31T15:01:27;17.40;38.00
24374;DHT22;12498;50.880;12.096;2022-10-31T15:03:58;17.20;41.70
24374;DHT22;12498;50.880;12.096;2022-10-31T15:06:35;17.20;44.50
24374;DHT22;12498;50.880;12.096;2022-10-31T15:09:04;17.10;47.60
24374;DHT22;12498;50.880;12.096;2022-10-31T15:11:36;17.00;51.60
24374;DHT22;12498;50.880;12.096;2022-10-31T15:14:38;17.00;53.30
24374;DHT22;12498;50.880;12.096;2022-10-31T15:17:03;17.00;53.70
24374;DHT22;12498;50.880;12.096;2022-10-31T15:19:31;16.90;55.10
24374;DHT22;12498;50.880;12.096;2022-10-31T15:21:58;16.80;57.20
24374;DHT22;12498;50.880;12.096;2022-10-31T15:24:53;16.70;60.80
24374;DHT22;12498;50.880;12.096;2022-10-31T15:27:22;16.60;71.50
24374;DHT22;12498;50.880;12.096;2022-10-31T15:29:52;16.50;72.40
24374;DHT22;12498;50.880;12.096;2022-10-31T15:32:23;16.50;78.20
24374;DHT22;12498;50.880;12.096;2022-10-31T15:34:50;16.40;76.40
24374;DHT22;12498;50.880;12.096;2022-10-31T15:37:21;16.40;88.30
24374;DHT22;12498;50.880;12.096;2022-10-31T15:39:51;16.30;92.40
24374;DHT22;12498;50.880;12.096;2022-10-31T15:42:32;16.20;91.80
24374;DHT22;12498;50.880;12.096;2022-10-31T15:45:19;16.20;93.20
24374;DHT22;12498;50.880;12.096;2022-10-31T15:48:02;16.10;96.30
24374;DHT22;12498;50.880;12.096;2022-10-31T15:50:38;16.00;99.90
24374;DHT22;12498;50.880;12.096;2022-10-31T15:53:14;15.90;99.90
24374;DHT22;12498;50.880;12.096;2022-10-31T15:56:05;15.90;99.90
24374;DHT22;12498;50.880;12.096;2022-10-31T15:58:44;15.80;99.90
24374;DHT22;12498;50.880;12.096;2022-10-31T16:01:23;15.70;99.90
24374;DHT22;12498;50.880;12.096;2022-10-31T16:04:20;15.70;99.90
24374;DHT22;12498;50.880;12.096;2022-10-31T16:07:12;15.60;99.90
24374;DHT22;12498;50.880;12.096;2022-10-31T16:10:21;15.60;99.90
24374;DHT22;12498;50.880;12.096;2022-10-31T16:12:43;15.50;99.90
24374;DHT22;12498;50.880;12.096;2022-10-31T16:15:16;15.40;99.90
24374;DHT22;12498;50.880;12.096;2022-10-31T16:17:45;15.40;99.90
24374;DHT22;12498;50.880;12.096;2022-10-31T16:20:26;15.40;99.90
24374;DHT22;12498;50.880;12.096;2022-10-31T16:22:56;15.30;99.90
24374;DHT22;12498;50.880;12.096;2022-10-31T16:25:28;15.30;99.90
24374;DHT22;12498;50.880;12.096;2022-10-31T16:28:04;15.30;99.90
24374;DHT22;12498;50.880;12.096;2022-10-31T16:30:37;15.20;99.90
24374;DHT22;12498;50.880;12.096;2022-10-31T16:33:30;15.10;99.90
24374;DHT22;12498;50.880;12.096;2022-10-31T16:35:59;15.10;99.90
24374;DHT22;12498;50.880;12.096;2022-10-31T16:38:26;15.10;99.90
24374;DHT22;12498;50.880;12.096;2022-10-31T16:40:52;15.10;99.90
24374;DHT22;12498;50.880;12.096;2022-10-31T16:43:19;15.00;99.90
24374;DHT22;12498;50.880;12.096;2022-10-31T16:45:50;15.00;99.90
24374;DHT22;12498;50.880;12.096;2022-10-31T16:48:20;14.90;99.90
24374;DHT22;12498;50.880;12.096;2022-10-31T16:50:48;14.90;99.90
24374;DHT22;12498;50.880;12.096;2022-10-31T16:53:17;14.90;99.90
24374;DHT22;12498;50.880;12.096;2022-10-31T16:55:45;14.90;99.90
24374;DHT22;12498;50.880;12.096;2022-10-31T16:58:17;14.80;99.90
24374;DHT22;12498;50.880;12.096;2022-10-31T17:00:44;14.80;99.90
24374;DHT22;12498;50.880;12.096;2022-10-31T17:03:10;14.70;99.90
24374;DHT22;12498;50.880;12.096;2022-10-31T17:05:36;14.70;99.90
24374;DHT22;12498;50.880;12.096;2022-10-31T17:08:03;14.70;99.90
24374;DHT22;12498;50.880;12.096;2022-10-31T17:10:28;14.70;99.90
24374;DHT22;12498;50.880;12.096;2022-10-31T17:12:54;14.60;99.90
24374;DHT22;12498;50.880;12.096;2022-10-31T17:15:25;14.60;99.90
24374;DHT22;12498;50.880;12.096;2022-10-31T17:17:51;14.60;99.90
24374;DHT22;12498;50.880;12.096;2022-10-31T17:20:28;14.60;99.90
24374;DHT22;12498;50.880;12.096;2022-10-31T17:22:55;14.50;99.90
24374;DHT22;12498;50.880;12.096;2022-10-31T17:25:22;14.50;99.90
24374;DHT22;12498;50.880;12.096;2022-10-31T17:27:49;14.40;99.90
24374;DHT22;12498;50.880;12.096;2022-10-31T17:30:16;14.50;99.90
24374;DHT22;12498;50.880;12.096;2022-10-31T17:32:43;14.40;99.90
24374;DHT22;12498;50.880;12.096;2022-10-31T17:35:10;14.40;99.90
24374;DHT22;12498;50.880;12.096;2022-10-31T17:37:37;14.30;99.90
24374;DHT22;12498;50.880;12.096;2022-10-31T17:40:04;14.30;99.90
24374;DHT22;12498;50.880;12.096;2022-10-31T17:42:29;14.30;99.90
24374;DHT22;12498;50.880;12.096;2022-10-31T17:44:55;14.30;99.90
24374;DHT22;12498;50.880;12.096;2022-10-31T17:47:21;14.20;99.90
24374;DHT22;12498;50.880;12.096;2022-10-31T17:49:46;14.20;99.90
24374;DHT22;12498;50.880;12.096;2022-10-31T17:52:12;14.10;99.90
24374;DHT22;12498;50.880;12.096;2022-10-31T17:54:37;14.10;99.90
24374;DHT22;12498;50.880;12.096;2022-10-31T17:57:03;14.10;99.90